createdAt,value
2019-06-15T00:00:11.624Z,24.02
2019-06-15T00:01:11.135Z,24
2019-06-15T00:02:11.658Z,24.1
2019-06-15T00:03:11.686Z,24.02
2019-06-15T00:04:11.704Z,24.08
2019-06-15T00:05:11.739Z,23.98
2019-06-15T00:06:11.754Z,23.97
2019-06-15T00:07:11.790Z,24
2019-06-15T00:08:11.558Z,23.98
2019-06-15T00:10:11.856Z,23.93
2019-06-15T00:11:11.882Z,23.97
2019-06-15T00:12:11.926Z,23.88
2019-06-15T00:13:11.680Z,23.95
2019-06-15T00:14:11.957Z,23.9
2019-06-15T00:15:11.984Z,23.91
2019-06-15T00:16:12.006Z,23.88
2019-06-15T00:17:11.959Z,23.93
2019-06-15T00:18:11.809Z,23.9
2019-06-15T00:19:12.080Z,23.87
2019-06-15T00:20:12.108Z,23.83
2019-06-15T00:21:12.141Z,23.97
2019-06-15T00:22:12.159Z,23.83
2019-06-15T00:23:11.939Z,23.84
2019-06-15T00:24:12.210Z,23.87
2019-06-15T00:25:11.984Z,23.79
2019-06-15T00:26:12.260Z,23.79
2019-06-15T00:27:12.296Z,23.75
2019-06-15T00:28:26.736Z,23.76
2019-06-15T00:29:12.340Z,23.79
2019-06-15T00:31:27.069Z,23.72
2019-06-15T00:32:12.409Z,23.72
2019-06-15T00:34:12.461Z,23.76
2019-06-15T00:35:12.499Z,23.72
2019-06-15T00:36:12.272Z,23.8
2019-06-15T00:37:12.564Z,23.76
2019-06-15T00:38:12.310Z,23.8
2019-06-15T00:39:12.346Z,23.8
2019-06-15T00:40:12.620Z,23.73
2019-06-15T00:41:27.301Z,23.84
2019-06-15T00:42:27.325Z,23.66
2019-06-15T00:43:12.444Z,23.78
2019-06-15T00:44:12.471Z,23.79
2019-06-15T00:45:12.738Z,23.76
2019-06-15T00:46:12.789Z,23.76
2019-06-15T00:47:27.448Z,23.73
2019-06-15T00:48:12.569Z,23.76
2019-06-15T00:49:12.834Z,23.72
2019-06-15T00:50:12.861Z,23.7
2019-06-15T00:51:12.886Z,23.79
2019-06-15T00:52:12.917Z,23.73
2019-06-15T00:53:12.935Z,23.75
2019-06-15T00:54:12.978Z,23.66
2019-06-15T00:55:13.237Z,23.76
2019-06-15T00:56:27.680Z,23.68
2019-06-15T00:57:13.044Z,23.69
2019-06-15T00:58:27.735Z,23.66
2019-06-15T00:59:13.132Z,23.78
2019-06-15T01:00:13.188Z,23.7
2019-06-15T01:01:13.153Z,23.72
2019-06-15T01:02:13.159Z,23.7
2019-06-15T01:03:27.854Z,23.65
2019-06-15T01:04:13.223Z,23.68
2019-06-15T01:05:13.240Z,23.66
2019-06-15T01:06:13.290Z,23.68
2019-06-15T01:07:13.285Z,23.68
2019-06-15T01:08:13.331Z,23.66
2019-06-15T01:09:13.349Z,23.58
2019-06-15T01:10:13.366Z,23.6
2019-06-15T01:11:13.546Z,23.68
2019-06-15T01:13:13.451Z,23.63
2019-06-15T01:14:13.469Z,23.65
2019-06-15T01:15:13.485Z,23.58
2019-06-15T01:16:13.516Z,23.61
2019-06-15T01:17:13.544Z,23.5
2019-06-15T01:18:13.582Z,23.55
2019-06-15T01:19:28.271Z,23.57
2019-06-15T01:20:13.613Z,23.48
2019-06-15T01:21:13.651Z,23.51
2019-06-15T01:22:13.669Z,23.51
2019-06-15T01:23:13.687Z,23.6
2019-06-15T01:24:13.468Z,23.51
2019-06-15T01:25:13.737Z,23.53
2019-06-15T01:26:13.761Z,23.47
2019-06-15T01:28:13.817Z,23.54
2019-06-15T01:29:13.891Z,23.54
2019-06-15T01:31:13.894Z,23.6
2019-06-15T01:32:13.946Z,23.55
2019-06-15T01:33:13.942Z,23.54
2019-06-15T01:35:13.986Z,23.57
2019-06-15T01:36:14.019Z,23.6
2019-06-15T01:37:14.048Z,23.66
2019-06-15T01:38:14.186Z,23.55
2019-06-15T01:39:14.087Z,23.6
2019-06-15T01:40:14.123Z,23.58
2019-06-15T01:42:14.168Z,23.57
2019-06-15T01:43:28.855Z,23.58
2019-06-15T01:44:14.255Z,23.65
2019-06-15T01:45:14.245Z,23.69
2019-06-15T01:46:28.927Z,23.69
2019-06-15T01:47:14.298Z,23.58
2019-06-15T01:48:14.360Z,23.63
2019-06-15T01:49:14.337Z,23.5
2019-06-15T01:50:14.120Z,23.61
2019-06-15T01:51:29.062Z,23.57
2019-06-15T01:52:14.418Z,23.58
2019-06-15T01:55:25.244Z,23.54
2019-06-15T01:56:29.183Z,23.6
2019-06-15T01:57:14.546Z,23.5
2019-06-15T01:58:14.572Z,23.5
2019-06-15T01:59:14.591Z,23.55
2019-06-15T02:00:14.621Z,23.48
2019-06-15T02:01:14.647Z,23.6
2019-06-15T02:02:29.327Z,23.58
2019-06-15T02:03:14.698Z,23.58
2019-06-15T02:04:14.773Z,23.63
2019-06-15T02:05:14.751Z,23.55
2019-06-15T02:06:29.436Z,23.55
2019-06-15T02:07:14.789Z,23.65
2019-06-15T02:08:14.566Z,23.58
2019-06-15T02:09:14.843Z,23.58
2019-06-15T02:10:14.875Z,23.5
2019-06-15T02:11:14.891Z,23.55
2019-06-15T02:13:14.989Z,23.51
2019-06-15T02:14:14.960Z,23.55
2019-06-15T02:15:14.995Z,23.55
2019-06-15T02:16:15.011Z,23.54
2019-06-15T02:17:29.704Z,23.58
2019-06-15T02:18:29.726Z,23.54
2019-06-15T02:19:29.750Z,23.58
2019-06-15T02:20:15.138Z,23.53
2019-06-15T02:21:15.140Z,23.47
2019-06-15T02:22:29.829Z,23.46
2019-06-15T02:23:14.938Z,23.38
2019-06-15T02:24:15.227Z,23.32
2019-06-15T02:25:15.234Z,23.27
2019-06-15T02:26:15.279Z,23.19
2019-06-15T02:27:15.052Z,23.07
2019-06-15T02:28:15.311Z,23.02
2019-06-15T02:29:15.348Z,22.95
2019-06-15T02:30:15.365Z,22.98
2019-06-15T02:31:15.387Z,22.88
2019-06-15T02:32:15.414Z,22.8
2019-06-15T02:33:15.448Z,22.75
2019-06-15T02:34:15.477Z,22.73
2019-06-15T02:35:15.487Z,22.68
2019-06-15T02:36:15.516Z,22.67
2019-06-15T02:37:15.550Z,22.67
2019-06-15T02:38:30.226Z,22.55
2019-06-15T02:39:15.592Z,22.57
2019-06-15T02:40:15.638Z,22.57
2019-06-15T02:41:15.655Z,22.47
2019-06-15T02:42:15.676Z,22.4
2019-06-15T02:43:15.762Z,22.33
2019-06-15T02:45:15.742Z,22.17
2019-06-15T02:46:15.836Z,22.18
2019-06-15T02:47:15.801Z,22.12
2019-06-15T02:48:15.815Z,22.14
2019-06-15T02:49:30.495Z,22.09
2019-06-15T02:50:15.857Z,22.03
2019-06-15T02:51:15.905Z,21.99
2019-06-15T02:52:15.912Z,21.92
2019-06-15T02:53:15.938Z,21.94
2019-06-15T02:54:30.655Z,21.9
2019-06-15T02:55:15.985Z,21.8
2019-06-15T02:56:16.022Z,21.77
2019-06-15T02:58:15.811Z,21.72
2019-06-15T02:59:16.078Z,21.65
2019-06-15T03:00:16.112Z,21.59
2019-06-15T03:01:16.136Z,21.62
2019-06-15T03:02:16.176Z,21.56
2019-06-15T03:03:16.202Z,21.58
2019-06-15T03:04:16.320Z,21.44
2019-06-15T03:05:16.229Z,21.44
2019-06-15T03:06:16.252Z,21.56
2019-06-15T03:07:16.094Z,21.42
2019-06-15T03:08:16.298Z,21.38
2019-06-15T03:09:30.989Z,21.49
2019-06-15T03:10:16.376Z,21.42
2019-06-15T03:11:16.445Z,21.42
2019-06-15T03:12:16.404Z,21.47
2019-06-15T03:13:16.421Z,21.54
2019-06-15T03:14:16.454Z,21.43
2019-06-15T03:15:16.470Z,21.4
2019-06-15T03:16:16.494Z,21.37
2019-06-15T03:17:16.522Z,21.32
2019-06-15T03:18:16.308Z,21.28
2019-06-15T03:19:16.568Z,21.28
2019-06-15T03:20:16.594Z,21.25
2019-06-15T03:21:16.621Z,21.19
2019-06-15T03:22:16.649Z,21.25
2019-06-15T03:23:16.667Z,21.14
2019-06-15T03:24:16.698Z,21.17
2019-06-15T03:25:16.721Z,21.22
2019-06-15T03:26:16.757Z,21.27
2019-06-15T03:27:16.766Z,21.28
2019-06-15T03:28:16.788Z,21.32
2019-06-15T03:29:16.812Z,21.29
2019-06-15T03:30:16.596Z,21.32
2019-06-15T03:31:31.563Z,21.43
2019-06-15T03:32:16.918Z,21.35
2019-06-15T03:33:16.925Z,21.37
2019-06-15T03:34:16.940Z,21.4
2019-06-15T03:35:31.627Z,21.46
2019-06-15T03:36:16.983Z,21.53
2019-06-15T03:37:17.010Z,21.58
2019-06-15T03:38:17.036Z,21.62
2019-06-15T03:39:17.059Z,21.71
2019-06-15T03:40:17.080Z,21.61
2019-06-15T03:41:31.769Z,21.67
2019-06-15T03:42:17.140Z,21.69
2019-06-15T03:43:31.856Z,21.82
2019-06-15T03:44:17.208Z,21.83
2019-06-15T03:46:17.235Z,21.86
2019-06-15T03:47:17.257Z,21.86
2019-06-15T03:48:17.281Z,21.98
2019-06-15T03:49:17.306Z,22.15
2019-06-15T03:50:32.001Z,22.06
2019-06-15T03:52:17.387Z,22.22
2019-06-15T03:53:17.413Z,22.21
2019-06-15T03:54:17.425Z,22.25
2019-06-15T03:55:17.479Z,22.22
2019-06-15T03:56:26.714Z,22.37
2019-06-15T03:57:32.159Z,22.35
2019-06-15T03:58:17.527Z,22.42
2019-06-15T03:59:17.574Z,22.43
2019-06-15T04:00:17.568Z,22.47
2019-06-15T04:01:17.367Z,22.58
2019-06-15T04:02:17.617Z,22.62
2019-06-15T04:04:17.670Z,22.51
2019-06-15T04:06:17.724Z,22.47
2019-06-15T04:07:17.740Z,22.58
2019-06-15T04:08:17.775Z,22.55
2019-06-15T04:09:17.792Z,22.6
2019-06-15T04:10:32.478Z,22.65
2019-06-15T04:11:17.848Z,22.64
2019-06-15T04:12:17.862Z,22.58
2019-06-15T04:14:17.916Z,22.57
2019-06-15T04:15:17.954Z,22.58
2019-06-15T04:16:17.966Z,22.62
2019-06-15T04:17:18.020Z,22.68
2019-06-15T04:18:17.766Z,22.67
2019-06-15T04:19:18.054Z,22.72
2019-06-15T04:20:18.060Z,22.67
2019-06-15T04:21:18.115Z,22.68
2019-06-15T04:22:18.111Z,22.67
2019-06-15T04:23:17.887Z,22.72
2019-06-15T04:24:18.158Z,22.7
2019-06-15T04:25:18.178Z,22.86
2019-06-15T04:26:18.203Z,22.83
2019-06-15T04:27:18.242Z,22.72
2019-06-15T04:28:18.267Z,22.82
2019-06-15T04:29:32.944Z,22.79
2019-06-15T04:30:18.320Z,22.8
2019-06-15T04:31:18.330Z,22.79
2019-06-15T04:32:18.357Z,22.79
2019-06-15T04:33:18.129Z,22.97
2019-06-15T04:34:18.413Z,22.82
2019-06-15T04:35:18.430Z,22.91
2019-06-15T04:36:18.514Z,22.9
2019-06-15T04:37:18.489Z,22.91
2019-06-15T04:38:18.502Z,22.98
2019-06-15T04:40:33.215Z,23.02
2019-06-15T04:41:18.589Z,23
2019-06-15T04:42:18.613Z,23.05
2019-06-15T04:43:18.663Z,23.12
2019-06-15T04:44:33.313Z,23.13
2019-06-15T04:45:18.678Z,23.2
2019-06-15T04:46:18.698Z,23.28
2019-06-15T04:47:18.727Z,23.32
2019-06-15T04:48:18.747Z,23.4
2019-06-15T04:49:18.775Z,23.38
2019-06-15T04:50:18.793Z,23.43
2019-06-15T04:51:18.827Z,23.6
2019-06-15T04:52:18.852Z,23.57
2019-06-15T04:53:19.739Z,23.6
2019-06-15T04:54:18.897Z,23.7
2019-06-15T04:55:18.921Z,23.7
2019-06-15T04:56:18.945Z,23.76
2019-06-15T04:57:18.976Z,23.76
2019-06-15T04:58:19.023Z,23.8
2019-06-15T04:59:19.019Z,23.87
2019-06-15T05:00:33.720Z,23.75
2019-06-15T05:01:19.081Z,23.84
2019-06-15T05:02:19.093Z,23.91
2019-06-15T05:03:19.117Z,23.94
2019-06-15T05:04:19.140Z,23.97
2019-06-15T05:05:19.198Z,23.95
2019-06-15T05:06:19.191Z,24.03
2019-06-15T05:07:19.217Z,24.02
2019-06-15T05:08:19.246Z,24.16
2019-06-15T05:09:19.270Z,24.24
2019-06-15T05:10:19.292Z,24.31
2019-06-15T05:11:19.321Z,24.42
2019-06-15T05:12:19.347Z,24.45
2019-06-15T05:13:19.366Z,24.45
2019-06-15T05:14:19.394Z,24.35
2019-06-15T05:15:19.520Z,24.46
2019-06-15T05:16:34.110Z,24.45
2019-06-15T05:17:19.545Z,24.6
2019-06-15T05:18:19.581Z,24.77
2019-06-15T05:19:19.537Z,25.2
2019-06-15T05:20:19.540Z,25.73
2019-06-15T05:21:19.579Z,26.02
2019-06-15T05:22:19.675Z,26.35
2019-06-15T05:23:19.382Z,26.48
2019-06-15T05:24:19.641Z,26.82
2019-06-15T05:25:19.677Z,26.94
2019-06-15T05:26:19.702Z,27.28
2019-06-15T05:27:19.722Z,27.66
2019-06-15T05:28:19.755Z,27.74
2019-06-15T05:29:19.780Z,27.5
2019-06-15T05:30:19.800Z,27.46
2019-06-15T05:31:19.828Z,27.96
2019-06-15T05:32:34.533Z,28.34
2019-06-15T05:33:19.891Z,28.59
2019-06-15T05:34:19.926Z,28.8
2019-06-15T05:35:20.015Z,29
2019-06-15T05:36:19.973Z,28.98
2019-06-15T05:37:20.000Z,29.12
2019-06-15T05:38:20.025Z,28.86
2019-06-15T05:39:20.072Z,29.14
2019-06-15T05:41:20.734Z,29.11
2019-06-15T05:42:20.164Z,28.85
2019-06-15T05:43:19.919Z,28.71
2019-06-15T05:44:34.914Z,28.48
2019-06-15T05:45:34.893Z,28.39
2019-06-15T05:47:20.302Z,28.33
2019-06-15T05:48:34.983Z,28.56
2019-06-15T05:49:20.345Z,28.56
2019-06-15T05:50:20.377Z,28.81
2019-06-15T05:51:20.408Z,28.52
2019-06-15T05:52:20.483Z,28.17
2019-06-15T05:53:20.218Z,28.12
2019-06-15T05:54:35.173Z,27.88
2019-06-15T05:55:20.532Z,27.67
2019-06-15T05:56:20.546Z,27.67
2019-06-15T05:57:26.561Z,28.22
2019-06-15T05:58:20.364Z,28.71
2019-06-15T05:59:20.636Z,29.09
2019-06-15T06:00:20.684Z,29.67
2019-06-15T06:01:20.702Z,29.97
2019-06-15T06:02:26.233Z,30.02
2019-06-15T06:03:20.278Z,29.87
2019-06-15T06:04:35.452Z,29.86
2019-06-15T06:05:20.820Z,29.98
2019-06-15T06:06:20.847Z,30.15
2019-06-15T06:07:20.877Z,30.29
2019-06-15T06:08:35.325Z,30.6
2019-06-15T06:09:20.938Z,30.45
2019-06-15T06:10:20.975Z,30.31
2019-06-15T06:11:21.005Z,30.67
2019-06-15T06:12:21.029Z,30.94
2019-06-15T06:14:35.762Z,31.34
2019-06-15T06:15:21.141Z,31.32
2019-06-15T06:16:21.164Z,31.32
2019-06-15T06:17:21.187Z,31.28
2019-06-15T06:18:21.229Z,31.44
2019-06-15T06:19:35.920Z,31.75
2019-06-15T06:20:21.290Z,31.81
2019-06-15T06:21:21.317Z,31.7
2019-06-15T06:22:21.353Z,31.75
2019-06-15T06:23:21.384Z,31.73
2019-06-15T06:24:21.434Z,31.75
2019-06-15T06:25:21.453Z,31.81
2019-06-15T06:26:21.480Z,31.44
2019-06-15T06:27:33.262Z,30.32
2019-06-15T06:28:21.542Z,29.92
2019-06-15T06:29:36.243Z,30.01
2019-06-15T06:30:21.376Z,30.31
2019-06-15T06:31:36.305Z,30.62
2019-06-15T06:32:21.672Z,30.77
2019-06-15T06:33:21.709Z,30.82
2019-06-15T06:34:21.741Z,31.28
2019-06-15T06:35:21.784Z,31.8
2019-06-15T06:36:21.807Z,32.06
2019-06-15T06:37:21.839Z,31.76
2019-06-15T06:38:21.869Z,31.5
2019-06-15T06:40:21.934Z,32.41
2019-06-15T06:41:21.968Z,32.47
2019-06-15T06:42:21.807Z,32.19
2019-06-15T06:43:22.028Z,32.14
2019-06-15T06:44:22.133Z,31.7
2019-06-15T06:45:22.105Z,31.26
2019-06-15T06:46:22.153Z,31.09
2019-06-15T06:47:36.825Z,31.46
2019-06-15T06:48:21.941Z,31.81
2019-06-15T06:49:22.248Z,32.06
2019-06-15T06:50:22.301Z,32.15
2019-06-15T06:51:36.956Z,32.77
2019-06-15T06:52:22.338Z,33.19
2019-06-15T06:54:22.389Z,33.06
2019-06-15T06:55:22.530Z,33.06
2019-06-15T06:56:22.468Z,33.28
2019-06-15T06:57:22.491Z,32.87
2019-06-15T06:58:22.022Z,32.81
2019-06-15T06:59:22.562Z,32.84
2019-06-15T07:00:22.355Z,32.44
2019-06-15T07:01:22.654Z,32.63
2019-06-15T07:02:22.656Z,32.51
2019-06-15T07:03:22.524Z,32.56
2019-06-15T07:04:37.386Z,32.78
2019-06-15T07:05:22.757Z,33
2019-06-15T07:06:22.787Z,33.42
2019-06-15T07:08:22.852Z,33.66
2019-06-15T07:09:22.918Z,34.05
2019-06-15T07:10:22.928Z,33.94
2019-06-15T07:11:22.953Z,33.31
2019-06-15T07:12:22.786Z,32.72
2019-06-15T07:13:22.770Z,32.33
2019-06-15T07:14:23.081Z,32.1
2019-06-15T07:15:23.129Z,31.85
2019-06-15T07:16:23.137Z,31.96
2019-06-15T07:17:22.937Z,32.15
2019-06-15T07:18:22.937Z,32.21
2019-06-15T07:19:37.899Z,32.19
2019-06-15T07:20:37.918Z,31.84
2019-06-15T07:21:23.289Z,31.57
2019-06-15T07:22:23.316Z,31.5
2019-06-15T07:23:38.012Z,31.73
2019-06-15T07:24:23.388Z,32.19
2019-06-15T07:25:23.413Z,32.11
2019-06-15T07:26:23.449Z,32.15
2019-06-15T07:27:23.477Z,32.26
2019-06-15T07:28:23.508Z,32.22
2019-06-15T07:29:23.538Z,32.28
2019-06-15T07:30:23.594Z,31.72
2019-06-15T07:31:23.613Z,31.86
2019-06-15T07:32:23.656Z,32.01
2019-06-15T07:33:23.671Z,32.29
2019-06-15T07:34:23.723Z,32.3
2019-06-15T07:35:23.781Z,32.08
2019-06-15T07:36:23.769Z,32.01
2019-06-15T07:38:23.824Z,32.4
2019-06-15T07:39:38.526Z,32.28
2019-06-15T07:40:23.938Z,32.21
2019-06-15T07:41:23.929Z,32.22
2019-06-15T07:42:23.970Z,32.38
2019-06-15T07:43:23.991Z,32.21
2019-06-15T07:44:24.029Z,32
2019-06-15T07:45:24.057Z,31.93
2019-06-15T07:46:24.080Z,31.89
2019-06-15T07:47:24.137Z,31.78
2019-06-15T07:48:23.893Z,31.46
2019-06-15T07:49:38.856Z,31.32
2019-06-15T07:50:24.210Z,31.43
2019-06-15T07:51:24.247Z,31.36
2019-06-15T07:52:24.276Z,31.04
2019-06-15T07:53:24.315Z,30.94
2019-06-15T07:54:38.996Z,31.2
2019-06-15T07:55:24.371Z,31.44
2019-06-15T07:56:24.214Z,31.72
2019-06-15T07:57:24.427Z,31.89
2019-06-15T07:58:29.538Z,32
2019-06-15T07:59:24.515Z,32.51
2019-06-15T08:00:24.558Z,33.41
2019-06-15T08:01:24.297Z,34.1
2019-06-15T08:02:24.578Z,34.39
2019-06-15T08:04:24.637Z,34.89
2019-06-15T08:05:39.341Z,35.03
2019-06-15T08:06:24.461Z,35.37
2019-06-15T08:07:39.400Z,35.9
2019-06-15T08:08:24.266Z,35.9
2019-06-15T08:09:24.838Z,35.97
2019-06-15T08:10:24.832Z,35.96
2019-06-15T08:11:24.863Z,35.92
2019-06-15T08:12:24.898Z,35.72
2019-06-15T08:13:24.929Z,35.94
2019-06-15T08:14:25.012Z,36.07
2019-06-15T08:15:25.061Z,36.37
2019-06-15T08:16:25.045Z,36.43
2019-06-15T08:17:25.065Z,35.9
2019-06-15T08:18:24.855Z,35.53
2019-06-15T08:20:24.919Z,35.44
2019-06-15T08:21:25.194Z,35.48
2019-06-15T08:22:25.246Z,35.43
2019-06-15T08:23:25.034Z,35.29
2019-06-15T08:24:25.300Z,34.84
2019-06-15T08:25:25.335Z,34.91
2019-06-15T08:27:25.460Z,34.22
2019-06-15T08:28:37.011Z,33.97
2019-06-15T08:29:25.484Z,33.87
2019-06-15T08:30:25.498Z,34.12
2019-06-15T08:31:25.541Z,34.7
2019-06-15T08:32:25.618Z,35.28
2019-06-15T08:33:25.616Z,35.37
2019-06-15T08:34:25.632Z,35.18
2019-06-15T08:35:25.686Z,35.38
2019-06-15T08:36:25.711Z,35.29
2019-06-15T08:37:25.738Z,35.48
2019-06-15T08:38:25.518Z,35.55
2019-06-15T08:39:25.843Z,35.77
2019-06-15T08:40:25.843Z,36.28
2019-06-15T08:41:25.871Z,35.93
2019-06-15T08:42:40.563Z,35.9
2019-06-15T08:43:25.930Z,36.01
2019-06-15T08:44:26.001Z,36
2019-06-15T08:45:25.994Z,35.66
2019-06-15T08:46:26.024Z,36.28
2019-06-15T08:47:26.062Z,36.46
2019-06-15T08:48:25.904Z,36.78
2019-06-15T08:49:26.137Z,36.41
2019-06-15T08:51:26.229Z,36.44
2019-06-15T08:52:26.227Z,36.31
2019-06-15T08:53:26.049Z,36.39
2019-06-15T08:54:26.300Z,36.39
2019-06-15T08:55:40.995Z,35.81
2019-06-15T08:56:26.368Z,35.96
2019-06-15T08:57:26.408Z,36.25
2019-06-15T08:58:54.708Z,36.15
2019-06-15T08:59:26.471Z,36.25
2019-06-15T09:00:26.363Z,36.68
2019-06-15T09:01:26.623Z,37.12
2019-06-15T09:02:26.657Z,37.03
2019-06-15T09:03:26.598Z,36.99
2019-06-15T09:04:26.687Z,36.95
2019-06-15T09:05:26.690Z,37
2019-06-15T09:07:26.736Z,37.56
2019-06-15T09:08:41.434Z,37.59
2019-06-15T09:09:26.809Z,37.62
2019-06-15T09:10:26.840Z,37.85
2019-06-15T09:11:26.643Z,37.49
2019-06-15T09:12:29.754Z,37.22
2019-06-15T09:13:26.968Z,37.36
2019-06-15T09:14:41.634Z,37.32
2019-06-15T09:15:27.043Z,37.51
2019-06-15T09:16:30.482Z,37.81
2019-06-15T09:17:27.068Z,37.86
2019-06-15T09:18:26.872Z,37.85
2019-06-15T09:20:27.178Z,37.84
2019-06-15T09:22:27.243Z,37.6
2019-06-15T09:23:27.276Z,37.72
2019-06-15T09:24:41.973Z,37.85
2019-06-15T09:25:27.342Z,37.91
2019-06-15T09:26:27.379Z,37.97
2019-06-15T09:28:27.478Z,37.82
2019-06-15T09:29:42.142Z,37.72
2019-06-15T09:30:27.520Z,37.34
2019-06-15T09:32:27.577Z,37.74
2019-06-15T09:33:27.610Z,37.79
2019-06-15T09:34:27.653Z,37.89
2019-06-15T09:36:27.727Z,38.04
2019-06-15T09:37:27.745Z,38.11
2019-06-15T09:38:27.285Z,37.98
2019-06-15T09:39:27.819Z,38.22
2019-06-15T09:40:27.863Z,38.42
2019-06-15T09:41:42.565Z,38.6
2019-06-15T09:42:27.920Z,38
2019-06-15T09:43:27.945Z,37.64
2019-06-15T09:44:27.984Z,37.59
2019-06-15T09:45:28.029Z,37.62
2019-06-15T09:47:28.081Z,38.15
2019-06-15T09:48:28.124Z,37.36
2019-06-15T09:49:28.147Z,37.02
2019-06-15T09:50:28.182Z,36.91
2019-06-15T09:52:28.257Z,37.21
2019-06-15T09:53:42.952Z,37.46
2019-06-15T09:54:30.441Z,37.76
2019-06-15T09:55:28.364Z,37.86
2019-06-15T09:56:28.387Z,37.81
2019-06-15T09:57:28.417Z,38.01
2019-06-15T09:58:28.201Z,38.54
2019-06-15T09:59:31.179Z,38.78
2019-06-15T10:00:28.303Z,38.47
2019-06-15T10:01:43.216Z,37.79
2019-06-15T10:02:28.579Z,37.31
2019-06-15T10:03:28.367Z,37.1
2019-06-15T10:04:28.674Z,36.83
2019-06-15T10:05:28.693Z,36.5
2019-06-15T10:06:28.731Z,36.57
2019-06-15T10:08:28.533Z,36.87
2019-06-15T10:10:28.851Z,36.12
2019-06-15T10:11:28.951Z,36.34
2019-06-15T10:12:28.981Z,36.69
2019-06-15T10:13:31.449Z,36.84
2019-06-15T10:15:29.038Z,37.13
2019-06-15T10:16:29.042Z,37.22
2019-06-15T10:17:43.754Z,37.47
2019-06-15T10:18:29.109Z,37.64
2019-06-15T10:19:29.164Z,37.74
2019-06-15T10:20:43.900Z,37.89
2019-06-15T10:23:29.329Z,38.23
2019-06-15T10:24:29.317Z,38.6
2019-06-15T10:25:29.399Z,38.54
2019-06-15T10:26:29.379Z,38.63
2019-06-15T10:27:29.414Z,38.87
2019-06-15T10:28:29.445Z,38.87
2019-06-15T10:29:43.971Z,38.79
2019-06-15T10:30:29.506Z,38.44
2019-06-15T10:31:29.605Z,38.38
2019-06-15T10:32:29.588Z,37.63
2019-06-15T10:33:44.312Z,37.63
2019-06-15T10:34:29.640Z,37.69
2019-06-15T10:35:29.676Z,37.72
2019-06-15T10:37:29.738Z,37.62
2019-06-15T10:38:29.816Z,37.41
2019-06-15T10:39:29.808Z,37.32
2019-06-15T10:41:29.948Z,37.13
2019-06-15T10:42:30.056Z,37.12
2019-06-15T10:43:44.605Z,36.85
2019-06-15T10:44:29.973Z,36.72
2019-06-15T10:45:30.073Z,36.81
2019-06-15T10:46:30.035Z,36.8
2019-06-15T10:47:30.096Z,36.94
2019-06-15T10:48:30.104Z,37.03
2019-06-15T10:49:44.687Z,37
2019-06-15T10:50:30.166Z,36.73
2019-06-15T10:51:30.204Z,36.68
2019-06-15T10:52:30.246Z,36.85
2019-06-15T10:53:30.276Z,36.76
2019-06-15T10:54:30.301Z,36.81
2019-06-15T10:55:30.333Z,36.6
2019-06-15T10:56:30.367Z,36.73
2019-06-15T10:57:30.457Z,36.65
2019-06-15T10:58:29.945Z,36.64
2019-06-15T10:59:56.699Z,36.71
2019-06-15T11:00:30.503Z,36.47
2019-06-15T11:01:30.540Z,36.51
2019-06-15T11:02:30.569Z,36.57
2019-06-15T11:03:30.114Z,36.64
2019-06-15T11:06:30.732Z,36.27
2019-06-15T11:07:30.729Z,35.93
2019-06-15T11:08:30.521Z,35.74
2019-06-15T11:10:30.834Z,35.63
2019-06-15T11:12:42.666Z,35.47
2019-06-15T11:13:30.679Z,35.44
2019-06-15T11:14:30.962Z,35.44
2019-06-15T11:15:31.004Z,35.41
2019-06-15T11:16:31.040Z,35.48
2019-06-15T11:17:31.066Z,35.44
2019-06-15T11:18:30.839Z,35.52
2019-06-15T11:19:31.134Z,35.62
2019-06-15T11:20:31.150Z,35.87
2019-06-15T11:21:31.245Z,35.84
2019-06-15T11:22:31.212Z,35.74
2019-06-15T11:23:31.247Z,35.89
2019-06-15T11:24:31.286Z,35.89
2019-06-15T11:25:31.310Z,36.13
2019-06-15T11:26:31.345Z,36.17
2019-06-15T11:27:31.386Z,36.12
2019-06-15T11:28:31.405Z,36.22
2019-06-15T11:29:31.433Z,36.31
2019-06-15T11:31:31.502Z,36.31
2019-06-15T11:32:31.537Z,36.22
2019-06-15T11:33:31.570Z,36.35
2019-06-15T11:34:31.605Z,36.23
2019-06-15T11:35:31.623Z,36.32
2019-06-15T11:36:46.327Z,36.47
2019-06-15T11:37:31.700Z,36.38
2019-06-15T11:38:31.721Z,36.37
2019-06-15T11:40:31.821Z,36.5
2019-06-15T11:41:31.819Z,36.56
2019-06-15T11:42:31.849Z,36.69
2019-06-15T11:43:31.910Z,36.62
2019-06-15T11:44:31.916Z,36.83
2019-06-15T11:45:31.953Z,36.84
2019-06-15T11:46:31.977Z,36.83
2019-06-15T11:47:32.011Z,36.72
2019-06-15T11:48:32.044Z,36.64
2019-06-15T11:49:32.134Z,36.59
2019-06-15T11:50:32.131Z,36.69
2019-06-15T11:51:32.157Z,36.65
2019-06-15T11:52:46.841Z,36.62
2019-06-15T11:53:32.269Z,36.39
2019-06-15T11:54:32.241Z,36.59
2019-06-15T11:55:43.971Z,36.76
2019-06-15T11:56:32.302Z,36.88
2019-06-15T11:57:32.347Z,36.99
2019-06-15T11:58:32.370Z,37.31
2019-06-15T11:59:32.404Z,37.46
2019-06-15T12:00:36.488Z,37.4
2019-06-15T12:01:32.462Z,37.59
2019-06-15T12:02:46.938Z,37.72
2019-06-15T12:03:32.534Z,37.79
2019-06-15T12:04:57.883Z,37.62
2019-06-15T12:05:32.342Z,37.59
2019-06-15T12:06:32.644Z,37.55
2019-06-15T12:07:34.439Z,37.43
2019-06-15T12:08:47.354Z,37.2
2019-06-15T12:09:32.719Z,37.17
2019-06-15T12:10:32.751Z,37.1
2019-06-15T12:11:32.784Z,37.2
2019-06-15T12:12:32.829Z,36.93
2019-06-15T12:13:32.875Z,36.87
2019-06-15T12:14:32.888Z,36.8
2019-06-15T12:15:32.939Z,36.72
2019-06-15T12:16:32.959Z,36.59
2019-06-15T12:17:32.784Z,36.64
2019-06-15T12:18:33.016Z,36.64
2019-06-15T12:19:33.044Z,36.56
2019-06-15T12:20:33.084Z,36.51
2019-06-15T12:21:33.151Z,36.57
2019-06-15T12:22:33.146Z,36.6
2019-06-15T12:23:33.179Z,36.54
2019-06-15T12:24:47.875Z,36.75
2019-06-15T12:25:33.243Z,36.69
2019-06-15T12:26:33.273Z,36.84
2019-06-15T12:27:33.301Z,36.88
2019-06-15T12:29:33.122Z,36.71
2019-06-15T12:30:48.433Z,36.41
2019-06-15T12:31:33.436Z,36.27
2019-06-15T12:32:33.501Z,36.2
2019-06-15T12:33:33.536Z,35.97
2019-06-15T12:34:33.587Z,36.05
2019-06-15T12:35:48.228Z,36.05
2019-06-15T12:36:33.597Z,35.96
2019-06-15T12:37:33.632Z,35.93
2019-06-15T12:38:33.660Z,35.94
2019-06-15T12:39:48.364Z,35.89
2019-06-15T12:40:33.751Z,36.05
2019-06-15T12:41:33.754Z,36.19
2019-06-15T12:42:33.789Z,36.31
2019-06-15T12:43:33.825Z,36.07
2019-06-15T12:44:33.860Z,36.37
2019-06-15T12:47:33.962Z,36.75
2019-06-15T12:49:34.015Z,36.98
2019-06-15T12:50:48.714Z,37.07
2019-06-15T12:51:34.097Z,36.93
2019-06-15T12:52:34.134Z,36.8
2019-06-15T12:53:34.159Z,36.69
2019-06-15T12:54:34.177Z,36.65
2019-06-15T12:55:34.207Z,36.51
2019-06-15T12:56:34.278Z,36.53
2019-06-15T12:57:34.270Z,36.28
2019-06-15T12:58:34.305Z,36.17
2019-06-15T12:59:34.330Z,36.13
2019-06-15T13:00:34.368Z,36.31
2019-06-15T13:02:34.441Z,36.78
2019-06-15T13:03:34.466Z,36.93
2019-06-15T13:05:34.527Z,37.02
2019-06-15T13:06:34.561Z,37.12
2019-06-15T13:07:34.593Z,37.12
2019-06-15T13:08:34.617Z,36.94
2019-06-15T13:09:34.676Z,36.57
2019-06-15T13:10:34.689Z,36.38
2019-06-15T13:11:49.387Z,36.27
2019-06-15T13:12:34.749Z,35.97
2019-06-15T13:13:34.800Z,36.07
2019-06-15T13:14:34.885Z,36.01
2019-06-15T13:15:34.843Z,35.89
2019-06-15T13:16:44.232Z,35.66
2019-06-15T13:17:34.916Z,35.6
2019-06-15T13:18:34.943Z,35.55
2019-06-15T13:19:49.642Z,35.48
2019-06-15T13:20:35.033Z,35.53
2019-06-15T13:21:35.034Z,35.38
2019-06-15T13:22:35.067Z,35.33
2019-06-15T13:23:35.125Z,35.36
2019-06-15T13:24:35.139Z,35.21
2019-06-15T13:25:35.160Z,35.36
2019-06-15T13:26:35.208Z,35.21
2019-06-15T13:27:49.899Z,35.16
2019-06-15T13:28:35.282Z,35.18
2019-06-15T13:29:35.291Z,35.22
2019-06-15T13:30:35.121Z,35.25
2019-06-15T13:31:35.351Z,35.31
2019-06-15T13:32:35.388Z,35.43
2019-06-15T13:33:35.423Z,35.5
2019-06-15T13:34:35.451Z,35.7
2019-06-15T13:35:35.479Z,36.03
2019-06-15T13:37:46.729Z,36.28
2019-06-15T13:38:50.239Z,36.43
2019-06-15T13:39:35.607Z,36.39
2019-06-15T13:40:35.641Z,36.38
2019-06-15T13:41:35.668Z,36.37
2019-06-15T13:42:35.698Z,36.59
2019-06-15T13:43:50.394Z,36.59
2019-06-15T13:45:35.798Z,36.6
2019-06-15T13:47:35.918Z,35.84
2019-06-15T13:48:35.886Z,35.81
2019-06-15T13:49:35.914Z,35.89
2019-06-15T13:50:36.054Z,35.58
2019-06-15T13:51:36.001Z,35.19
2019-06-15T13:52:36.012Z,35.18
2019-06-15T13:53:36.044Z,34.85
2019-06-15T13:54:36.074Z,34.88
2019-06-15T13:55:36.105Z,34.89
2019-06-15T13:56:36.153Z,34.87